createdAt,value
2023-03-11T00:00:31.203Z,7.89
2023-03-11T00:03:00.723Z,7.69
2023-03-11T00:05:41.668Z,7.76
2023-03-11T00:08:14.113Z,7.82
2023-03-11T00:10:43.549Z,7.72
2023-03-11T00:13:14.281Z,7.72
2023-03-11T00:15:42.711Z,7.63
2023-03-11T00:18:09.371Z,7.73
2023-03-11T00:20:38.577Z,7.61
2023-03-11T00:23:07.297Z,7.72
2023-03-11T00:25:37.035Z,7.71
2023-03-11T00:28:05.415Z,7.83
2023-03-11T00:30:32.079Z,7.65
2023-03-11T00:33:00.057Z,7.82
2023-03-11T00:35:30.486Z,7.71
2023-03-11T00:38:00.264Z,7.67
2023-03-11T00:40:30.058Z,7.61
2023-03-11T00:42:57.647Z,7.62
2023-03-11T00:45:24.778Z,7.71
2023-03-11T00:47:52.235Z,7.75
2023-03-11T00:50:25.207Z,7.85
2023-03-11T00:52:52.809Z,7.83
2023-03-11T00:55:26.012Z,8.00
2023-03-11T00:57:55.500Z,7.99
2023-03-11T01:00:23.699Z,7.93
2023-03-11T01:02:51.434Z,7.98
2023-03-11T01:05:21.049Z,7.94
2023-03-11T01:07:48.348Z,7.90
2023-03-11T01:10:16.689Z,8.10
2023-03-11T01:12:43.896Z,7.81
2023-03-11T01:15:19.997Z,7.86
2023-03-11T01:17:46.688Z,7.84
2023-03-11T01:20:14.529Z,7.89
2023-03-11T01:22:41.206Z,7.92
2023-03-11T01:25:08.280Z,7.91
2023-03-11T01:27:34.862Z,7.86
2023-03-11T01:30:01.857Z,7.82
2023-03-11T01:32:28.687Z,7.64
2023-03-11T01:34:55.344Z,7.56
2023-03-11T01:37:21.963Z,7.54
2023-03-11T01:39:48.626Z,7.59
2023-03-11T01:42:15.237Z,7.67
2023-03-11T01:44:43.346Z,7.40
2023-03-11T01:47:10.024Z,7.29
2023-03-11T01:49:36.868Z,7.42
2023-03-11T01:52:06.737Z,7.39
2023-03-11T01:54:41.675Z,7.26
2023-03-11T01:57:13.330Z,7.22
2023-03-11T01:59:45.115Z,7.35
2023-03-11T02:02:23.417Z,7.49
2023-03-11T02:04:51.408Z,7.42
2023-03-11T02:07:18.321Z,7.37
2023-03-11T02:09:44.955Z,7.29
2023-03-11T02:12:14.068Z,7.18
2023-03-11T02:14:44.790Z,7.23
2023-03-11T02:17:11.653Z,7.22
2023-03-11T02:19:40.946Z,7.04
2023-03-11T02:22:09.475Z,7.08
2023-03-11T02:24:52.190Z,7.26
2023-03-11T02:27:21.740Z,7.27
2023-03-11T02:29:50.556Z,7.11
2023-03-11T02:32:17.450Z,7.17
2023-03-11T02:34:46.981Z,7.29
2023-03-11T02:37:16.320Z,7.50
2023-03-11T02:39:46.038Z,7.20
2023-03-11T02:42:29.176Z,7.36
2023-03-11T02:45:10.122Z,7.44
2023-03-11T02:47:39.085Z,7.54
2023-03-11T02:50:07.135Z,7.52
2023-03-11T02:52:35.440Z,7.26
2023-03-11T02:55:02.766Z,7.22
2023-03-11T02:57:29.384Z,7.29
2023-03-11T02:59:56.046Z,7.20
2023-03-11T03:02:22.749Z,7.25
2023-03-11T03:04:49.463Z,7.18
2023-03-11T03:07:16.103Z,7.33
2023-03-11T03:09:42.797Z,7.20
2023-03-11T03:12:09.537Z,7.21
2023-03-11T03:14:36.904Z,7.27
2023-03-11T03:17:03.660Z,7.30
2023-03-11T03:19:30.320Z,7.29
2023-03-11T03:21:56.940Z,7.23
2023-03-11T03:24:26.477Z,7.43
2023-03-11T03:26:53.107Z,7.39
2023-03-11T03:29:19.846Z,7.52
2023-03-11T03:31:46.567Z,7.48
2023-03-11T03:34:13.347Z,7.48
2023-03-11T03:36:40.188Z,7.45
2023-03-11T03:39:07.364Z,7.44
2023-03-11T03:41:34.120Z,7.55
2023-03-11T03:44:01.083Z,7.52
2023-03-11T03:46:27.810Z,7.49
2023-03-11T03:48:54.446Z,7.42
2023-03-11T03:51:21.100Z,7.49
2023-03-11T03:53:47.731Z,7.35
2023-03-11T03:56:17.041Z,7.34
2023-03-11T03:58:44.480Z,7.25
2023-03-11T04:01:11.873Z,7.21
2023-03-11T04:03:38.794Z,7.22
2023-03-11T04:06:06.987Z,7.19
2023-03-11T04:08:33.655Z,7.05
2023-03-11T04:11:00.378Z,6.92
2023-03-11T04:13:27.023Z,6.97
2023-03-11T04:15:53.774Z,6.92
2023-03-11T04:18:20.602Z,6.88
2023-03-11T04:20:47.165Z,6.74
2023-03-11T04:23:13.798Z,6.64
2023-03-11T04:25:40.543Z,6.56
2023-03-11T04:28:07.196Z,6.61
2023-03-11T04:30:33.953Z,6.54
2023-03-11T04:33:00.668Z,6.49
2023-03-11T04:35:27.429Z,6.49
2023-03-11T04:37:54.205Z,6.44
2023-03-11T04:40:20.913Z,6.48
2023-03-11T04:42:47.548Z,6.35
2023-03-11T04:45:14.355Z,6.38
2023-03-11T04:47:40.990Z,6.34
2023-03-11T04:50:07.806Z,6.37
2023-03-11T04:52:34.450Z,6.21
2023-03-11T04:55:01.298Z,6.01
2023-03-11T04:57:28.066Z,6.01
2023-03-11T04:59:54.678Z,5.85
2023-03-11T05:02:21.309Z,5.77
2023-03-11T05:04:48.036Z,5.63
2023-03-11T05:07:14.685Z,5.60
2023-03-11T05:09:41.373Z,5.56
2023-03-11T05:12:09.536Z,5.39
2023-03-11T05:14:36.215Z,5.41
2023-03-11T05:17:03.181Z,5.28
2023-03-11T05:19:29.879Z,5.23
2023-03-11T05:21:56.724Z,5.11
2023-03-11T05:24:23.523Z,5.28
2023-03-11T05:26:50.191Z,5.08
2023-03-11T05:29:17.106Z,5.10
2023-03-11T05:31:43.813Z,5.17
2023-03-11T05:34:10.389Z,4.95
2023-03-11T05:36:37.101Z,4.95
2023-03-11T05:39:06.222Z,4.86
2023-03-11T05:41:32.845Z,4.86
2023-03-11T05:43:59.758Z,4.79
2023-03-11T05:46:26.905Z,4.82
2023-03-11T05:48:53.624Z,4.59
2023-03-11T05:51:20.477Z,4.57
2023-03-11T05:53:48.842Z,4.69
2023-03-11T05:56:16.254Z,4.49
2023-03-11T05:58:43.094Z,4.55
2023-03-11T06:01:15.622Z,4.50
2023-03-11T06:03:44.170Z,4.46
2023-03-11T06:06:13.223Z,4.55
2023-03-11T06:08:40.260Z,4.68
2023-03-11T06:11:09.372Z,4.52
2023-03-11T06:13:37.267Z,4.47
2023-03-11T06:16:04.625Z,4.53
2023-03-11T06:18:31.352Z,4.36
2023-03-11T06:20:59.218Z,4.26
2023-03-11T06:23:26.327Z,4.31
2023-03-11T06:26:01.000Z,4.19
2023-03-11T06:28:28.968Z,4.09
2023-03-11T06:30:56.130Z,4.15
2023-03-11T06:33:23.855Z,4.24
2023-03-11T06:36:01.176Z,4.27
2023-03-11T06:38:27.997Z,4.23
2023-03-11T06:41:04.193Z,4.40
2023-03-11T06:43:32.209Z,4.41
2023-03-11T06:45:59.445Z,4.49
2023-03-11T06:48:26.396Z,4.34
2023-03-11T06:50:57.517Z,4.19
2023-03-11T06:53:25.070Z,4.08
2023-03-11T06:56:21.515Z,4.08
2023-03-11T06:58:48.390Z,3.90
2023-03-11T07:01:21.024Z,3.91
2023-03-11T07:03:49.201Z,4.02
2023-03-11T07:06:24.304Z,4.12
2023-03-11T07:08:52.592Z,3.97
2023-03-11T07:11:21.293Z,3.92
2023-03-11T07:13:48.276Z,4.15
2023-03-11T07:16:20.950Z,3.99
2023-03-11T07:18:49.536Z,3.89
2023-03-11T07:21:19.270Z,3.94
2023-03-11T07:23:46.457Z,4.06
2023-03-11T07:26:15.730Z,4.15
2023-03-11T07:28:42.565Z,4.10
2023-03-11T07:31:14.547Z,3.95
2023-03-11T07:33:41.286Z,4.07
2023-03-11T07:36:14.086Z,4.04
2023-03-11T07:38:41.965Z,4.15
2023-03-11T07:41:09.816Z,4.04
2023-03-11T07:43:36.941Z,3.98
2023-03-11T07:46:04.454Z,4.05
2023-03-11T07:48:31.169Z,4.00
2023-03-11T07:51:05.535Z,4.26
2023-03-11T07:53:32.334Z,4.36
2023-03-11T07:56:00.167Z,4.48
2023-03-11T07:58:27.297Z,4.25
2023-03-11T08:00:54.519Z,4.29
2023-03-11T08:03:21.278Z,4.25
2023-03-11T08:05:47.927Z,4.33
2023-03-11T08:08:14.616Z,4.35
2023-03-11T08:10:41.258Z,4.55
2023-03-11T08:13:08.008Z,4.54
2023-03-11T08:15:34.717Z,4.46
2023-03-11T08:18:01.590Z,4.29
2023-03-11T08:20:28.321Z,4.15
2023-03-11T08:22:58.406Z,4.25
2023-03-11T08:25:26.807Z,4.11
2023-03-11T08:27:53.441Z,4.26
2023-03-11T08:30:20.293Z,4.37
2023-03-11T08:32:46.982Z,4.39
2023-03-11T08:35:13.652Z,4.18
2023-03-11T08:37:40.528Z,4.10
2023-03-11T08:40:07.747Z,4.43
2023-03-11T08:42:35.701Z,4.43
2023-03-11T08:45:04.042Z,4.25
2023-03-11T08:47:34.934Z,4.19
2023-03-11T08:50:02.009Z,4.31
2023-03-11T08:52:28.728Z,4.55
2023-03-11T08:54:55.367Z,4.64
2023-03-11T08:57:22.073Z,4.79
2023-03-11T08:59:48.836Z,5.01
2023-03-11T09:02:15.409Z,4.84
2023-03-11T09:04:42.067Z,4.83
2023-03-11T09:07:11.449Z,5.24
2023-03-11T09:09:38.053Z,5.27
2023-03-11T09:12:04.810Z,5.03
2023-03-11T09:14:31.492Z,5.14
2023-03-11T09:16:58.087Z,5.17
2023-03-11T09:19:25.198Z,5.56
2023-03-11T09:21:51.896Z,5.38
2023-03-11T09:24:18.547Z,5.33
2023-03-11T09:26:45.327Z,5.05
2023-03-11T09:29:11.950Z,5.31
2023-03-11T09:31:38.817Z,5.53
2023-03-11T09:34:06.143Z,5.75
2023-03-11T09:36:32.817Z,5.73
2023-03-11T09:39:00.801Z,5.90
2023-03-11T09:41:57.572Z,5.81
2023-03-11T09:44:34.360Z,5.54
2023-03-11T09:47:15.843Z,5.89
2023-03-11T09:50:07.085Z,5.94
2023-03-11T09:53:08.830Z,5.42
2023-03-11T09:55:41.406Z,4.86
2023-03-11T09:58:15.629Z,4.73
2023-03-11T10:00:42.460Z,4.48
2023-03-11T10:03:21.576Z,4.72
2023-03-11T10:05:48.388Z,4.77
2023-03-11T10:08:22.522Z,4.82
2023-03-11T10:11:10.493Z,4.65
2023-03-11T10:13:50.136Z,4.87
2023-03-11T10:16:37.753Z,4.87
2023-03-11T10:19:22.995Z,4.68
2023-03-11T10:21:58.604Z,4.39
2023-03-11T10:25:05.819Z,4.47
2023-03-11T10:27:41.931Z,4.48
2023-03-11T10:30:43.658Z,4.11
2023-03-11T10:33:31.835Z,4.11
2023-03-11T10:36:06.847Z,3.98
2023-03-11T10:38:40.716Z,3.99
2023-03-11T10:41:15.756Z,3.96
2023-03-11T10:43:45.882Z,3.87
2023-03-11T10:46:20.178Z,3.96
2023-03-11T10:48:46.838Z,4.08
2023-03-11T10:51:22.077Z,3.97
2023-03-11T10:53:53.967Z,3.94
2023-03-11T10:56:36.191Z,3.88
2023-03-11T10:59:23.035Z,3.97
2023-03-11T11:01:58.133Z,3.86
2023-03-11T11:04:37.567Z,3.80
2023-03-11T11:07:21.536Z,3.91
2023-03-11T11:09:51.220Z,3.97
2023-03-11T11:12:21.025Z,4.15
2023-03-11T11:14:52.425Z,4.37
2023-03-11T11:17:27.368Z,4.82
2023-03-11T11:19:55.599Z,5.06
2023-03-11T11:22:23.732Z,5.15
2023-03-11T11:24:53.071Z,5.05
2023-03-11T11:27:19.882Z,5.04
2023-03-11T11:29:47.928Z,4.70
2023-03-11T11:32:27.230Z,4.62
2023-03-11T11:34:57.239Z,5.00
2023-03-11T11:37:25.626Z,4.82
2023-03-11T11:39:58.478Z,4.78
2023-03-11T11:42:29.255Z,4.56
2023-03-11T11:45:04.032Z,4.53
2023-03-11T11:47:35.388Z,4.60
2023-03-11T11:50:05.716Z,4.56
2023-03-11T11:52:43.555Z,4.63
2023-03-11T11:55:21.421Z,4.65
2023-03-11T11:57:48.870Z,4.38
2023-03-11T12:00:28.518Z,4.25
2023-03-11T12:03:28.705Z,4.26
2023-03-11T12:06:00.263Z,4.42
2023-03-11T12:08:34.232Z,4.81
2023-03-11T12:11:00.777Z,5.00
2023-03-11T12:13:36.238Z,4.78
2023-03-11T12:16:17.687Z,4.71
2023-03-11T12:18:51.875Z,4.60
2023-03-11T12:21:43.282Z,4.90
2023-03-11T12:24:14.121Z,5.22
2023-03-11T12:26:44.398Z,5.23
2023-03-11T12:29:38.857Z,5.23
2023-03-11T12:32:07.193Z,4.89
2023-03-11T12:34:36.098Z,5.14
2023-03-11T12:37:13.741Z,5.06
2023-03-11T12:39:40.641Z,5.03
2023-03-11T12:42:13.133Z,4.57
2023-03-11T12:44:40.837Z,4.74
2023-03-11T12:47:13.289Z,4.93
2023-03-11T12:49:48.211Z,5.03
2023-03-11T12:52:14.796Z,4.81
2023-03-11T12:54:47.128Z,5.22
2023-03-11T12:57:16.744Z,5.25
2023-03-11T13:00:11.984Z,5.70
2023-03-11T13:03:16.403Z,5.69
2023-03-11T13:05:52.044Z,5.19
2023-03-11T13:08:36.763Z,5.18
2023-03-11T13:11:27.186Z,4.79
2023-03-11T13:13:53.984Z,4.81
2023-03-11T13:16:20.665Z,4.74
2023-03-11T13:18:49.029Z,4.72
2023-03-11T13:21:37.451Z,4.68
2023-03-11T13:24:19.186Z,4.73
2023-03-11T13:27:04.384Z,4.82
2023-03-11T13:29:43.326Z,5.06
2023-03-11T13:32:15.766Z,4.80
2023-03-11T13:35:12.639Z,4.98
2023-03-11T13:38:18.364Z,4.87
2023-03-11T13:40:46.768Z,4.69
2023-03-11T13:43:21.435Z,4.62
2023-03-11T13:45:56.986Z,4.54
2023-03-11T13:48:31.128Z,4.60
2023-03-11T13:51:05.425Z,4.39
2023-03-11T13:53:44.762Z,4.37
2023-03-11T13:56:39.824Z,4.37
2023-03-11T13:59:23.666Z,4.59
2023-03-11T14:01:56.938Z,4.97
2023-03-11T14:04:32.901Z,5.07
2023-03-11T14:07:00.370Z,5.10
2023-03-11T14:09:28.352Z,5.08
2023-03-11T14:12:03.992Z,5.03
2023-03-11T14:14:44.415Z,5.02
2023-03-11T14:17:17.202Z,4.69
2023-03-11T14:20:04.430Z,4.56
2023-03-11T14:22:31.673Z,4.57
2023-03-11T14:25:02.283Z,4.34
2023-03-11T14:27:29.046Z,4.29
2023-03-11T14:29:55.757Z,4.29
2023-03-11T14:32:31.638Z,4.29
2023-03-11T14:34:58.611Z,4.42
2023-03-11T14:37:34.430Z,4.35
2023-03-11T14:40:02.133Z,4.35
2023-03-11T14:42:38.344Z,4.43
2023-03-11T14:45:08.120Z,4.37
2023-03-11T14:47:48.794Z,4.27
2023-03-11T14:50:24.218Z,4.52
2023-03-11T14:52:56.729Z,4.37
2023-03-11T14:55:30.084Z,4.41
2023-03-11T14:58:22.395Z,4.16
2023-03-11T15:00:55.696Z,4.29
2023-03-11T15:03:26.799Z,4.56
2023-03-11T15:05:57.084Z,4.48
2023-03-11T15:08:28.608Z,4.31
2023-03-11T15:11:19.281Z,4.37
2023-03-11T15:13:47.820Z,4.45
2023-03-11T15:16:25.728Z,4.38
2023-03-11T15:18:52.572Z,4.45
2023-03-11T15:21:24.059Z,4.36
2023-03-11T15:24:02.326Z,4.35
2023-03-11T15:26:35.204Z,4.47
2023-03-11T15:29:14.569Z,4.51
2023-03-11T15:31:43.433Z,4.42
2023-03-11T15:34:18.167Z,4.56
2023-03-11T15:36:45.668Z,4.00
2023-03-11T15:39:30.508Z,4.18
2023-03-11T15:42:12.308Z,4.25
2023-03-11T15:45:06.869Z,4.50
2023-03-11T15:47:33.524Z,4.60
2023-03-11T15:50:15.142Z,4.46
2023-03-11T15:52:47.450Z,4.34
2023-03-11T15:55:16.644Z,4.63
2023-03-11T15:57:43.444Z,4.44
2023-03-11T16:00:23.858Z,4.51
2023-03-11T16:02:50.849Z,4.19
2023-03-11T16:05:21.134Z,4.27
2023-03-11T16:07:48.489Z,4.24
2023-03-11T16:10:18.889Z,4.12
2023-03-11T16:12:45.524Z,3.94
2023-03-11T16:15:38.176Z,4.10
2023-03-11T16:18:06.839Z,4.06
2023-03-11T16:20:46.222Z,3.68
2023-03-11T16:23:18.276Z,3.56
2023-03-11T16:25:45.922Z,3.54
2023-03-11T16:28:16.989Z,3.46
2023-03-11T16:30:44.335Z,3.47
2023-03-11T16:33:11.099Z,3.36
2023-03-11T16:35:37.795Z,3.41
2023-03-11T16:38:04.442Z,3.36
2023-03-11T16:40:31.127Z,3.33
2023-03-11T16:43:01.539Z,3.29
2023-03-11T16:45:28.427Z,3.26
2023-03-11T16:47:55.311Z,3.18
2023-03-11T16:50:22.101Z,3.25
2023-03-11T16:52:48.704Z,3.33
2023-03-11T16:55:15.346Z,3.41
2023-03-11T16:57:42.068Z,3.37
2023-03-11T17:00:09.986Z,3.17
2023-03-11T17:02:37.744Z,3.27
2023-03-11T17:05:06.131Z,3.09
2023-03-11T17:07:33.012Z,3.10
2023-03-11T17:10:00.142Z,3.26
2023-03-11T17:12:28.155Z,3.02
2023-03-11T17:14:54.907Z,2.97
2023-03-11T17:17:22.107Z,3.11
2023-03-11T17:19:48.915Z,2.91
2023-03-11T17:22:16.267Z,2.97
2023-03-11T17:24:43.298Z,2.93
2023-03-11T17:27:10.112Z,2.89
2023-03-11T17:29:39.760Z,3.03
2023-03-11T17:32:06.992Z,2.60
2023-03-11T17:34:33.727Z,2.72
2023-03-11T17:37:00.335Z,2.85
2023-03-11T17:39:26.996Z,2.79
2023-03-11T17:41:53.632Z,2.61
2023-03-11T17:44:20.268Z,2.59
2023-03-11T17:46:46.958Z,2.40
2023-03-11T17:49:14.784Z,2.48
2023-03-11T17:51:41.946Z,2.56
2023-03-11T17:54:08.589Z,2.45
2023-03-11T17:56:35.264Z,2.58
2023-03-11T17:59:01.974Z,2.43
2023-03-11T18:01:28.738Z,2.51
2023-03-11T18:03:55.811Z,2.51
2023-03-11T18:06:22.472Z,2.31
2023-03-11T18:08:49.672Z,2.40
2023-03-11T18:11:19.553Z,2.44
2023-03-11T18:13:46.297Z,2.43
2023-03-11T18:16:19.245Z,2.23
2023-03-11T18:18:46.636Z,2.33
2023-03-11T18:21:21.966Z,2.07
2023-03-11T18:23:49.083Z,2.05
2023-03-11T18:26:18.294Z,2.01
2023-03-11T18:28:45.103Z,2.02
2023-03-11T18:31:15.184Z,2.00
2023-03-11T18:33:50.411Z,2.07
2023-03-11T18:36:20.511Z,2.04
2023-03-11T18:38:47.423Z,2.15
2023-03-11T18:41:14.290Z,2.24
2023-03-11T18:43:41.478Z,2.15
2023-03-11T18:46:14.095Z,2.07
2023-03-11T18:48:41.688Z,1.95
2023-03-11T18:51:08.762Z,2.06
2023-03-11T18:53:36.638Z,2.07
2023-03-11T18:56:06.986Z,1.95
2023-03-11T18:58:34.218Z,1.91
2023-03-11T19:01:09.969Z,1.94
2023-03-11T19:03:36.617Z,1.89
2023-03-11T19:06:03.295Z,1.90
2023-03-11T19:08:30.270Z,1.93
2023-03-11T19:10:56.919Z,2.07
2023-03-11T19:13:23.874Z,2.04
2023-03-11T19:15:50.617Z,1.95
2023-03-11T19:18:17.235Z,1.85
2023-03-11T19:20:43.918Z,1.87
2023-03-11T19:23:10.665Z,2.03
2023-03-11T19:25:37.418Z,1.99
2023-03-11T19:28:04.299Z,1.66
2023-03-11T19:30:31.026Z,1.78
2023-03-11T19:32:57.913Z,1.67
2023-03-11T19:35:24.835Z,1.53
2023-03-11T19:37:55.418Z,1.55
2023-03-11T19:40:23.396Z,1.51
2023-03-11T19:42:50.041Z,1.56
2023-03-11T19:45:16.721Z,1.55
2023-03-11T19:47:46.398Z,1.40
2023-03-11T19:50:13.043Z,1.49
2023-03-11T19:52:39.762Z,1.32
2023-03-11T19:55:07.088Z,1.44
2023-03-11T19:57:33.790Z,1.23
2023-03-11T20:00:00.381Z,1.49
2023-03-11T20:02:27.264Z,1.57
2023-03-11T20:04:54.118Z,1.29
2023-03-11T20:07:20.954Z,1.27
2023-03-11T20:09:47.670Z,1.07
2023-03-11T20:12:14.296Z,1.11
2023-03-11T20:14:42.348Z,1.09
2023-03-11T20:17:09.460Z,1.18
2023-03-11T20:19:36.585Z,1.15
2023-03-11T20:22:03.235Z,1.12
2023-03-11T20:24:29.929Z,1.04
2023-03-11T20:26:56.724Z,1.01
2023-03-11T20:29:23.548Z,0.94
2023-03-11T20:31:50.641Z,0.82
2023-03-11T20:34:17.265Z,0.85
2023-03-11T20:36:43.877Z,0.93
2023-03-11T20:39:10.828Z,1.26
2023-03-11T20:41:39.552Z,0.87
2023-03-11T20:44:08.417Z,0.80
2023-03-11T20:46:35.431Z,0.87
2023-03-11T20:49:02.544Z,1.03
2023-03-11T20:51:29.220Z,0.86
2023-03-11T20:53:55.951Z,0.69
2023-03-11T20:56:25.179Z,0.75
2023-03-11T20:58:53.148Z,0.76
2023-03-11T21:01:29.051Z,0.55
2023-03-11T21:03:58.489Z,0.59
2023-03-11T21:06:51.814Z,0.56
2023-03-11T21:09:18.986Z,0.67
2023-03-11T21:11:45.814Z,0.73
2023-03-11T21:14:17.279Z,0.55
2023-03-11T21:16:44.911Z,0.58
2023-03-11T21:19:12.930Z,0.50
2023-03-11T21:21:40.033Z,0.47
2023-03-11T21:24:07.833Z,0.52
2023-03-11T21:26:35.230Z,0.52
2023-03-11T21:29:01.995Z,0.52
2023-03-11T21:31:29.748Z,0.60
2023-03-11T21:33:58.570Z,0.79
2023-03-11T21:36:25.503Z,0.87
2023-03-11T21:38:52.352Z,0.88
2023-03-11T21:41:20.474Z,0.41
2023-03-11T21:43:48.092Z,0.40
2023-03-11T21:46:17.876Z,0.38
2023-03-11T21:48:45.467Z,0.64
2023-03-11T21:51:13.008Z,0.56
2023-03-11T21:53:39.761Z,0.40
2023-03-11T21:56:06.835Z,0.36
2023-03-11T21:58:34.342Z,0.39
2023-03-11T22:01:01.488Z,0.34
2023-03-11T22:03:29.246Z,0.37
2023-03-11T22:06:00.634Z,0.64
2023-03-11T22:08:28.056Z,0.61
2023-03-11T22:10:55.242Z,0.49
2023-03-11T22:13:23.217Z,0.50
2023-03-11T22:15:50.100Z,0.33
2023-03-11T22:18:16.872Z,0.32
2023-03-11T22:20:44.338Z,0.52
2023-03-11T22:23:11.139Z,0.41
2023-03-11T22:25:37.994Z,0.39
2023-03-11T22:28:07.430Z,0.30
2023-03-11T22:30:36.229Z,0.40
2023-03-11T22:33:02.994Z,0.46
2023-03-11T22:35:29.642Z,0.38
2023-03-11T22:37:56.244Z,0.38
2023-03-11T22:40:22.956Z,0.27
2023-03-11T22:42:49.561Z,0.31
2023-03-11T22:45:16.422Z,0.57
2023-03-11T22:47:43.110Z,0.56
2023-03-11T22:50:10.488Z,0.39
2023-03-11T22:52:37.101Z,0.30
2023-03-11T22:55:06.171Z,0.48
2023-03-11T22:57:33.115Z,0.15
2023-03-11T22:59:59.822Z,0.26
2023-03-11T23:02:26.457Z,0.18
2023-03-11T23:04:53.129Z,0.21
2023-03-11T23:07:19.901Z,0.09
2023-03-11T23:09:46.534Z,0.05
2023-03-11T23:12:13.173Z,0.08
2023-03-11T23:14:44.839Z,0.13
2023-03-11T23:17:12.303Z,-0.05
2023-03-11T23:19:39.114Z,0.17
2023-03-11T23:22:05.827Z,0.30
2023-03-11T23:24:32.546Z,0.15
2023-03-11T23:26:59.409Z,0.18
2023-03-11T23:29:26.108Z,0.01
2023-03-11T23:31:52.741Z,0.27
2023-03-11T23:34:19.423Z,0.28
2023-03-11T23:36:46.056Z,0.27
2023-03-11T23:39:12.708Z,0.15
2023-03-11T23:41:39.349Z,0.03
2023-03-11T23:44:06.002Z,0.11
2023-03-11T23:46:32.802Z,0.30
2023-03-11T23:48:59.546Z,0.10
2023-03-11T23:51:26.181Z,-0.00
2023-03-11T23:53:53.105Z,0.05
2023-03-11T23:56:19.739Z,0.11
2023-03-11T23:58:46.895Z,0.02
